createdAt,value
2022-12-17T00:01:42.678Z,-2.36
2022-12-17T00:07:02.996Z,-2.35
2022-12-17T00:12:23.161Z,-2.35
2022-12-17T00:17:43.530Z,-2.33
2022-12-17T00:23:03.765Z,-2.31
2022-12-17T00:28:28.759Z,-2.30
2022-12-17T00:33:49.038Z,-2.31
2022-12-17T00:39:09.445Z,-2.29
2022-12-17T00:44:30.146Z,-2.30
2022-12-17T00:49:50.335Z,-2.31
2022-12-17T00:55:10.516Z,-2.29
2022-12-17T01:00:31.340Z,-2.30
2022-12-17T01:05:52.688Z,-2.30
2022-12-17T01:11:19.185Z,-2.30
2022-12-17T01:16:39.566Z,-2.30
2022-12-17T01:22:01.668Z,-2.31
2022-12-17T01:27:21.940Z,-2.34
2022-12-17T01:32:44.127Z,-2.33
2022-12-17T01:38:04.438Z,-2.34
2022-12-17T01:43:30.424Z,-2.35
2022-12-17T01:49:03.302Z,-2.34
2022-12-17T01:54:24.714Z,-2.34
2022-12-17T01:59:57.684Z,-2.34
2022-12-17T02:05:17.944Z,-2.34
2022-12-17T02:10:48.511Z,-2.34
2022-12-17T02:16:44.670Z,-2.33
2022-12-17T02:22:13.469Z,-2.33
2022-12-17T02:27:34.841Z,-2.32
2022-12-17T02:33:00.342Z,-2.31
2022-12-17T02:38:43.148Z,-2.30
2022-12-17T02:44:04.529Z,-2.30
2022-12-17T02:49:26.181Z,-2.30
2022-12-17T02:54:51.813Z,-2.32
2022-12-17T03:00:13.213Z,-2.33
2022-12-17T03:05:45.120Z,-2.32
2022-12-17T03:11:06.190Z,-2.30
2022-12-17T03:16:32.783Z,-2.30
2022-12-17T03:21:57.415Z,-2.29
2022-12-17T03:27:17.575Z,-2.32
2022-12-17T03:32:37.811Z,-2.32
2022-12-17T03:37:58.052Z,-2.33
2022-12-17T03:43:25.780Z,-2.34
2022-12-17T03:48:46.024Z,-2.34
2022-12-17T03:54:06.289Z,-2.33
2022-12-17T03:59:26.515Z,-2.30
2022-12-17T04:04:46.887Z,-2.31
2022-12-17T04:10:07.100Z,-2.30
2022-12-17T04:15:27.783Z,-2.29
2022-12-17T04:20:48.026Z,-2.27
2022-12-17T04:26:08.343Z,-2.26
2022-12-17T04:31:28.716Z,-2.26
2022-12-17T04:36:48.955Z,-2.28
2022-12-17T04:42:09.184Z,-2.27
2022-12-17T04:47:29.410Z,-2.24
2022-12-17T04:52:49.690Z,-2.22
2022-12-17T04:58:09.922Z,-2.22
2022-12-17T05:03:35.195Z,-2.21
2022-12-17T05:08:55.970Z,-2.19
2022-12-17T05:14:16.200Z,-2.18
2022-12-17T05:19:36.631Z,-2.18
2022-12-17T05:24:57.345Z,-2.19
2022-12-17T05:30:17.668Z,-2.17
2022-12-17T05:35:37.933Z,-2.18
2022-12-17T05:40:58.153Z,-2.17
2022-12-17T05:46:18.886Z,-2.18
2022-12-17T05:51:40.275Z,-2.18
2022-12-17T05:57:00.478Z,-2.16
2022-12-17T06:02:20.687Z,-2.14
2022-12-17T06:07:41.040Z,-2.12
2022-12-17T06:13:01.459Z,-2.08
2022-12-17T06:18:21.758Z,-2.08
2022-12-17T06:23:41.982Z,-2.06
2022-12-17T06:29:02.943Z,-2.03
2022-12-17T06:34:23.064Z,-2.02
2022-12-17T06:39:43.222Z,-2.01
2022-12-17T06:45:03.523Z,-1.99
2022-12-17T06:50:24.734Z,-1.96
2022-12-17T06:55:45.093Z,-1.94
2022-12-17T07:01:05.827Z,-1.91
2022-12-17T07:06:27.243Z,-1.88
2022-12-17T07:11:47.776Z,-1.88
2022-12-17T07:17:08.083Z,-1.89
2022-12-17T07:22:28.524Z,-1.85
2022-12-17T07:27:48.856Z,-1.82
2022-12-17T07:33:26.089Z,-1.78
2022-12-17T07:38:49.426Z,-1.77
2022-12-17T07:44:09.734Z,-1.76
2022-12-17T07:49:30.698Z,-1.74
2022-12-17T07:54:51.107Z,-1.70
2022-12-17T08:00:11.334Z,-1.67
2022-12-17T08:05:31.444Z,-1.61
2022-12-17T08:10:51.499Z,-1.57
2022-12-17T08:16:13.057Z,-1.52
2022-12-17T08:21:33.763Z,-1.48
2022-12-17T08:26:54.082Z,-1.46
2022-12-17T08:32:14.335Z,-1.41
2022-12-17T08:37:34.715Z,-1.34
2022-12-17T08:42:55.268Z,-1.29
2022-12-17T08:48:26.367Z,-1.27
2022-12-17T08:53:46.453Z,-1.21
2022-12-17T08:59:07.053Z,-1.19
2022-12-17T09:04:27.422Z,-1.16
2022-12-17T09:09:47.695Z,-1.14
2022-12-17T09:15:07.926Z,-1.16
2022-12-17T09:20:29.561Z,-1.17
2022-12-17T09:25:53.678Z,-1.16
2022-12-17T09:31:20.726Z,-1.13
2022-12-17T09:36:41.168Z,-1.01
2022-12-17T09:42:27.375Z,-0.93
2022-12-17T09:48:15.329Z,-0.87
2022-12-17T09:54:08.690Z,-0.79
2022-12-17T09:59:39.029Z,-0.76
2022-12-17T10:05:02.968Z,-0.67
2022-12-17T10:10:38.447Z,-0.62
2022-12-17T10:16:01.688Z,-0.62
2022-12-17T10:21:25.406Z,-0.59
2022-12-17T10:26:49.719Z,-0.54
2022-12-17T10:32:10.683Z,-0.52
2022-12-17T10:37:39.127Z,-0.50
2022-12-17T10:42:59.405Z,-0.46
2022-12-17T10:48:20.067Z,-0.43
2022-12-17T10:53:43.892Z,-0.41
2022-12-17T10:59:12.825Z,-0.50
2022-12-17T11:04:42.361Z,-0.54
2022-12-17T11:10:11.707Z,-0.57
2022-12-17T11:15:51.341Z,-0.57
2022-12-17T11:21:38.915Z,-0.51
2022-12-17T11:27:02.870Z,-0.43
2022-12-17T11:32:32.575Z,-0.38
2022-12-17T11:38:16.173Z,-0.37
2022-12-17T11:44:15.559Z,-0.32
2022-12-17T11:50:04.443Z,-0.27
2022-12-17T11:55:27.889Z,-0.24
2022-12-17T12:00:55.327Z,-0.26
2022-12-17T12:06:21.587Z,-0.25
2022-12-17T12:12:04.502Z,-0.23
2022-12-17T12:17:37.017Z,-0.19
2022-12-17T12:23:11.940Z,-0.13
2022-12-17T12:28:41.386Z,-0.06
2022-12-17T12:34:28.088Z,-0.04
2022-12-17T12:40:00.083Z,0.01
2022-12-17T12:45:26.972Z,0.05
2022-12-17T12:51:19.408Z,0.05
2022-12-17T12:56:54.545Z,0.02
2022-12-17T13:02:14.751Z,-0.02
2022-12-17T13:07:28.206Z,0.00
2022-12-17T13:12:44.778Z,0.03
2022-12-17T13:18:16.339Z,0.04
2022-12-17T13:23:39.186Z,0.06
2022-12-17T13:28:42.943Z,0.03
2022-12-17T13:33:54.840Z,0.05
2022-12-17T13:39:12.273Z,0.04
2022-12-17T13:44:29.590Z,0.01
2022-12-17T13:49:32.138Z,-0.02
2022-12-17T13:54:34.757Z,-0.05
2022-12-17T13:59:38.079Z,-0.10
2022-12-17T14:04:40.995Z,-0.12
2022-12-17T14:09:44.108Z,-0.17
2022-12-17T14:14:56.213Z,-0.18
2022-12-17T14:20:22.855Z,-0.19
2022-12-17T14:25:34.231Z,-0.21
2022-12-17T14:30:42.921Z,-0.23
2022-12-17T14:35:55.188Z,-0.26
2022-12-17T14:41:31.628Z,-0.30
2022-12-17T14:46:35.066Z,-0.34
2022-12-17T14:51:42.835Z,-0.40
2022-12-17T14:56:45.116Z,-0.39
2022-12-17T15:01:55.637Z,-0.45
2022-12-17T15:06:59.209Z,-0.46
2022-12-17T15:12:01.015Z,-0.47
2022-12-17T15:17:02.866Z,-0.47
2022-12-17T15:22:05.449Z,-0.47
2022-12-17T15:27:08.617Z,-0.45
2022-12-17T15:32:19.547Z,-0.44
2022-12-17T15:37:25.632Z,-0.44
2022-12-17T15:42:46.394Z,-0.45
2022-12-17T15:47:48.473Z,-0.47
2022-12-17T15:52:50.405Z,-0.50
2022-12-17T15:57:52.337Z,-0.52
2022-12-17T16:02:54.344Z,-0.58
2022-12-17T16:07:59.273Z,-0.65
2022-12-17T16:13:01.174Z,-0.72
2022-12-17T16:18:03.265Z,-0.82
2022-12-17T16:23:05.263Z,-0.92
2022-12-17T16:28:07.098Z,-0.99
2022-12-17T16:33:08.931Z,-1.01
2022-12-17T16:38:10.812Z,-0.98
2022-12-17T16:43:12.614Z,-0.92
2022-12-17T16:48:15.050Z,-0.87
2022-12-17T16:53:18.456Z,-0.84
2022-12-17T16:58:20.268Z,-0.82
2022-12-17T17:03:22.312Z,-0.82
2022-12-17T17:08:24.376Z,-0.85
2022-12-17T17:13:26.142Z,-0.87
2022-12-17T17:18:28.139Z,-0.86
2022-12-17T17:23:30.897Z,-0.87
2022-12-17T17:28:32.938Z,-0.92
2022-12-17T17:33:37.194Z,-1.04
2022-12-17T17:38:42.380Z,-1.13
2022-12-17T17:43:44.808Z,-1.26
2022-12-17T17:48:49.821Z,-1.41
2022-12-17T17:53:55.679Z,-1.56
2022-12-17T17:59:05.485Z,-1.69
2022-12-17T18:04:12.108Z,-1.85
2022-12-17T18:09:14.748Z,-1.96
2022-12-17T18:14:18.207Z,-2.06
2022-12-17T18:19:22.025Z,-2.16
2022-12-17T18:24:23.830Z,-2.20
2022-12-17T18:29:28.913Z,-2.26
2022-12-17T18:34:30.953Z,-2.33
2022-12-17T18:39:33.355Z,-2.40
2022-12-17T18:44:38.767Z,-2.46
2022-12-17T18:49:41.921Z,-2.52
2022-12-17T18:54:43.654Z,-2.61
2022-12-17T18:59:45.814Z,-2.70
2022-12-17T19:04:47.655Z,-2.80
2022-12-17T19:09:52.292Z,-2.86
2022-12-17T19:14:54.110Z,-2.88
2022-12-17T19:19:55.842Z,-2.93
2022-12-17T19:24:57.597Z,-3.00
2022-12-17T19:29:59.396Z,-3.08
2022-12-17T19:35:01.310Z,-3.15
2022-12-17T19:40:03.674Z,-3.21
2022-12-17T19:45:06.681Z,-3.27
2022-12-17T19:50:08.797Z,-3.31
2022-12-17T19:55:10.636Z,-3.34
2022-12-17T20:00:12.808Z,-3.38
2022-12-17T20:05:14.573Z,-3.44
2022-12-17T20:10:16.518Z,-3.50
2022-12-17T20:15:18.358Z,-3.55
2022-12-17T20:20:20.119Z,-3.59
2022-12-17T20:25:25.009Z,-3.61
2022-12-17T20:30:27.013Z,-3.64
2022-12-17T20:35:28.789Z,-3.71
2022-12-17T20:40:30.821Z,-3.74
2022-12-17T20:45:32.631Z,-3.80
2022-12-17T20:50:40.683Z,-3.81
2022-12-17T20:55:42.679Z,-3.85
2022-12-17T21:00:44.579Z,-3.89
2022-12-17T21:05:46.545Z,-3.95
2022-12-17T21:10:48.337Z,-3.97
2022-12-17T21:15:54.742Z,-3.99
2022-12-17T21:20:59.557Z,-4.01
2022-12-17T21:26:04.323Z,-4.06
2022-12-17T21:31:30.354Z,-4.11
2022-12-17T21:36:34.124Z,-4.16
2022-12-17T21:41:39.276Z,-4.17
2022-12-17T21:46:50.002Z,-4.17
2022-12-17T21:51:52.278Z,-4.19
2022-12-17T21:56:54.196Z,-4.18
2022-12-17T22:01:57.553Z,-4.19
2022-12-17T22:07:17.407Z,-4.20
2022-12-17T22:12:39.919Z,-4.19
2022-12-17T22:17:43.057Z,-4.24
2022-12-17T22:22:45.619Z,-4.27
2022-12-17T22:27:47.709Z,-4.35
2022-12-17T22:33:07.065Z,-4.39
2022-12-17T22:41:57.834Z,-4.44
2022-12-17T22:44:37.052Z,-4.45
2022-12-17T22:49:00.262Z,-4.48
2022-12-17T22:54:04.786Z,-4.51
2022-12-17T22:59:07.697Z,-4.57
2022-12-17T23:04:13.856Z,-4.60
2022-12-17T23:09:19.417Z,-4.65
2022-12-17T23:14:21.482Z,-4.66
2022-12-17T23:19:23.223Z,-4.64
2022-12-17T23:24:25.084Z,-4.65
2022-12-17T23:29:27.074Z,-4.66
2022-12-17T23:34:28.878Z,-4.67
2022-12-17T23:39:30.855Z,-4.68
2022-12-17T23:44:32.638Z,-4.69
2022-12-17T23:49:34.454Z,-4.72
2022-12-17T23:54:36.199Z,-4.72
2022-12-17T23:59:37.989Z,-4.75
